sensor_id;sensor_type;location;lat;lon;timestamp;temperature;humidity
7159;DHT22;63175;52.374;13.132;2022-10-12T00:01:44;9.80;92.60
7159;DHT22;63175;52.374;13.132;2022-10-12T00:04:11;9.80;92.60
7159;DHT22;63175;52.374;13.132;2022-10-12T00:06:38;9.80;92.50
7159;DHT22;63175;52.374;13.132;2022-10-12T00:09:05;9.80;92.40
7159;DHT22;63175;52.374;13.132;2022-10-12T00:11:32;9.80;92.40
7159;DHT22;63175;52.374;13.132;2022-10-12T00:13:58;9.80;92.40
7159;DHT22;63175;52.374;13.132;2022-10-12T00:16:27;9.80;92.40
7159;DHT22;63175;52.374;13.132;2022-10-12T00:18:57;9.80;92.30
7159;DHT22;63175;52.374;13.132;2022-10-12T00:21:24;9.90;92.30
7159;DHT22;63175;52.374;13.132;2022-10-12T00:23:55;9.80;92.30
7159;DHT22;63175;52.374;13.132;2022-10-12T00:26:23;9.90;92.40
7159;DHT22;63175;52.374;13.132;2022-10-12T00:28:54;9.90;92.30
7159;DHT22;63175;52.374;13.132;2022-10-12T00:31:21;9.90;92.30
7159;DHT22;63175;52.374;13.132;2022-10-12T00:33:50;9.90;92.60
7159;DHT22;63175;52.374;13.132;2022-10-12T00:36:19;9.90;92.40
7159;DHT22;63175;52.374;13.132;2022-10-12T00:38:47;9.80;92.40
7159;DHT22;63175;52.374;13.132;2022-10-12T00:41:15;9.80;92.40
7159;DHT22;63175;52.374;13.132;2022-10-12T00:43:44;9.80;92.40
7159;DHT22;63175;52.374;13.132;2022-10-12T00:46:15;9.80;92.40
7159;DHT22;63175;52.374;13.132;2022-10-12T00:48:44;9.70;92.40
7159;DHT22;63175;52.374;13.132;2022-10-12T00:51:14;9.60;92.40
7159;DHT22;63175;52.374;13.132;2022-10-12T00:53:44;9.60;92.50
7159;DHT22;63175;52.374;13.132;2022-10-12T00:56:17;9.50;92.60
7159;DHT22;63175;52.374;13.132;2022-10-12T00:58:47;9.40;92.60
7159;DHT22;63175;52.374;13.132;2022-10-12T01:01:16;9.30;92.70
7159;DHT22;63175;52.374;13.132;2022-10-12T01:03:43;9.30;92.80
7159;DHT22;63175;52.374;13.132;2022-10-12T01:06:12;9.20;92.90
7159;DHT22;63175;52.374;13.132;2022-10-12T01:08:39;9.20;93.00
7159;DHT22;63175;52.374;13.132;2022-10-12T01:11:07;9.10;93.00
7159;DHT22;63175;52.374;13.132;2022-10-12T01:13:33;9.10;93.10
7159;DHT22;63175;52.374;13.132;2022-10-12T01:16:10;9.00;93.00
7159;DHT22;63175;52.374;13.132;2022-10-12T01:18:43;9.00;93.10
7159;DHT22;63175;52.374;13.132;2022-10-12T01:21:16;9.00;93.10
7159;DHT22;63175;52.374;13.132;2022-10-12T01:24:19;9.00;93.10
7159;DHT22;63175;52.374;13.132;2022-10-12T01:27:02;8.90;93.10
7159;DHT22;63175;52.374;13.132;2022-10-12T01:30:00;8.90;93.10
7159;DHT22;63175;52.374;13.132;2022-10-12T01:32:33;8.90;93.00
7159;DHT22;63175;52.374;13.132;2022-10-12T01:35:05;8.80;93.00
7159;DHT22;63175;52.374;13.132;2022-10-12T01:37:41;8.80;93.00
7159;DHT22;63175;52.374;13.132;2022-10-12T01:40:14;8.80;93.10
7159;DHT22;63175;52.374;13.132;2022-10-12T01:42:42;8.80;93.10
7159;DHT22;63175;52.374;13.132;2022-10-12T01:45:13;8.70;93.00
7159;DHT22;63175;52.374;13.132;2022-10-12T01:47:42;8.70;93.00
7159;DHT22;63175;52.374;13.132;2022-10-12T01:50:14;8.70;93.00
7159;DHT22;63175;52.374;13.132;2022-10-12T01:52:47;8.70;93.00
7159;DHT22;63175;52.374;13.132;2022-10-12T01:55:25;8.70;93.00
7159;DHT22;63175;52.374;13.132;2022-10-12T01:58:11;8.70;92.90
7159;DHT22;63175;52.374;13.132;2022-10-12T02:00:43;8.70;92.90
7159;DHT22;63175;52.374;13.132;2022-10-12T02:03:17;8.70;92.90
7159;DHT22;63175;52.374;13.132;2022-10-12T02:05:48;8.70;92.90
7159;DHT22;63175;52.374;13.132;2022-10-12T02:08:21;8.70;92.90
7159;DHT22;63175;52.374;13.132;2022-10-12T02:10:52;8.60;92.80
7159;DHT22;63175;52.374;13.132;2022-10-12T02:13:23;8.60;92.90
7159;DHT22;63175;52.374;13.132;2022-10-12T02:15:52;8.50;93.00
7159;DHT22;63175;52.374;13.132;2022-10-12T02:18:20;8.40;93.20
7159;DHT22;63175;52.374;13.132;2022-10-12T02:20:50;8.40;93.30
7159;DHT22;63175;52.374;13.132;2022-10-12T02:23:18;8.30;93.30
7159;DHT22;63175;52.374;13.132;2022-10-12T02:25:48;8.30;93.30
7159;DHT22;63175;52.374;13.132;2022-10-12T02:28:18;8.30;93.40
7159;DHT22;63175;52.374;13.132;2022-10-12T02:30:50;8.20;93.30
7159;DHT22;63175;52.374;13.132;2022-10-12T02:33:23;8.20;93.40
7159;DHT22;63175;52.374;13.132;2022-10-12T02:35:54;8.10;93.30
7159;DHT22;63175;52.374;13.132;2022-10-12T02:38:26;8.10;93.40
7159;DHT22;63175;52.374;13.132;2022-10-12T02:40:57;8.10;93.50
7159;DHT22;63175;52.374;13.132;2022-10-12T02:43:30;8.00;93.50
7159;DHT22;63175;52.374;13.132;2022-10-12T02:45:59;8.00;93.40
7159;DHT22;63175;52.374;13.132;2022-10-12T02:48:28;8.00;93.50
7159;DHT22;63175;52.374;13.132;2022-10-12T02:50:56;7.90;93.40
7159;DHT22;63175;52.374;13.132;2022-10-12T02:53:25;7.90;93.50
7159;DHT22;63175;52.374;13.132;2022-10-12T02:55:58;7.90;93.60
7159;DHT22;63175;52.374;13.132;2022-10-12T02:58:26;7.80;93.70
7159;DHT22;63175;52.374;13.132;2022-10-12T03:00:53;7.80;93.80
7159;DHT22;63175;52.374;13.132;2022-10-12T03:03:20;7.90;93.80
7159;DHT22;63175;52.374;13.132;2022-10-12T03:05:48;7.90;93.80
7159;DHT22;63175;52.374;13.132;2022-10-12T03:08:15;7.90;93.70
7159;DHT22;63175;52.374;13.132;2022-10-12T03:10:41;7.90;93.70
7159;DHT22;63175;52.374;13.132;2022-10-12T03:13:08;7.90;93.60
7159;DHT22;63175;52.374;13.132;2022-10-12T03:15:35;7.90;93.60
7159;DHT22;63175;52.374;13.132;2022-10-12T03:18:02;7.80;93.50
7159;DHT22;63175;52.374;13.132;2022-10-12T03:20:29;7.80;93.60
7159;DHT22;63175;52.374;13.132;2022-10-12T03:22:57;7.70;93.60
7159;DHT22;63175;52.374;13.132;2022-10-12T03:25:24;7.70;93.70
7159;DHT22;63175;52.374;13.132;2022-10-12T03:27:51;7.70;93.80
7159;DHT22;63175;52.374;13.132;2022-10-12T03:30:18;7.70;93.90
7159;DHT22;63175;52.374;13.132;2022-10-12T03:32:45;7.60;93.80
7159;DHT22;63175;52.374;13.132;2022-10-12T03:35:11;7.60;94.00
7159;DHT22;63175;52.374;13.132;2022-10-12T03:37:38;7.60;94.00
7159;DHT22;63175;52.374;13.132;2022-10-12T03:40:08;7.60;94.00
7159;DHT22;63175;52.374;13.132;2022-10-12T03:42:35;7.60;94.10
7159;DHT22;63175;52.374;13.132;2022-10-12T03:45:02;7.60;94.30
7159;DHT22;63175;52.374;13.132;2022-10-12T03:47:29;7.50;94.10
7159;DHT22;63175;52.374;13.132;2022-10-12T03:49:56;7.60;94.30
7159;DHT22;63175;52.374;13.132;2022-10-12T03:52:23;7.50;94.20
7159;DHT22;63175;52.374;13.132;2022-10-12T03:54:50;7.50;94.30
7159;DHT22;63175;52.374;13.132;2022-10-12T03:57:18;7.50;94.30
7159;DHT22;63175;52.374;13.132;2022-10-12T03:59:44;7.50;94.30
7159;DHT22;63175;52.374;13.132;2022-10-12T04:02:11;7.50;94.20
7159;DHT22;63175;52.374;13.132;2022-10-12T04:04:38;7.50;94.20
7159;DHT22;63175;52.374;13.132;2022-10-12T04:07:05;7.40;94.20
7159;DHT22;63175;52.374;13.132;2022-10-12T04:09:33;7.50;94.20
7159;DHT22;63175;52.374;13.132;2022-10-12T04:12:00;7.40;94.30
7159;DHT22;63175;52.374;13.132;2022-10-12T04:14:28;7.40;94.60
7159;DHT22;63175;52.374;13.132;2022-10-12T04:16:55;7.30;94.70
7159;DHT22;63175;52.374;13.132;2022-10-12T04:19:22;7.30;95.00
7159;DHT22;63175;52.374;13.132;2022-10-12T04:21:49;7.30;95.00
7159;DHT22;63175;52.374;13.132;2022-10-12T04:24:16;7.30;95.20
7159;DHT22;63175;52.374;13.132;2022-10-12T04:26:43;7.30;95.40
7159;DHT22;63175;52.374;13.132;2022-10-12T04:29:11;7.30;95.40
7159;DHT22;63175;52.374;13.132;2022-10-12T04:31:40;7.30;95.40
7159;DHT22;63175;52.374;13.132;2022-10-12T04:34:08;7.30;95.40
7159;DHT22;63175;52.374;13.132;2022-10-12T04:36:35;7.30;95.40
7159;DHT22;63175;52.374;13.132;2022-10-12T04:39:02;7.30;95.40
7159;DHT22;63175;52.374;13.132;2022-10-12T04:41:29;7.30;95.40
7159;DHT22;63175;52.374;13.132;2022-10-12T04:43:55;7.30;95.30
7159;DHT22;63175;52.374;13.132;2022-10-12T04:46:22;7.20;95.20
7159;DHT22;63175;52.374;13.132;2022-10-12T04:48:50;7.20;95.20
7159;DHT22;63175;52.374;13.132;2022-10-12T04:51:17;7.20;95.30
7159;DHT22;63175;52.374;13.132;2022-10-12T04:53:44;7.10;95.20
7159;DHT22;63175;52.374;13.132;2022-10-12T04:56:11;7.10;95.20
7159;DHT22;63175;52.374;13.132;2022-10-12T04:58:38;7.10;95.20
7159;DHT22;63175;52.374;13.132;2022-10-12T05:01:05;7.00;95.20
7159;DHT22;63175;52.374;13.132;2022-10-12T05:03:32;7.00;95.20
7159;DHT22;63175;52.374;13.132;2022-10-12T05:06:00;6.90;95.20
7159;DHT22;63175;52.374;13.132;2022-10-12T05:08:27;6.90;95.30
7159;DHT22;63175;52.374;13.132;2022-10-12T05:10:54;6.90;95.30
7159;DHT22;63175;52.374;13.132;2022-10-12T05:13:22;6.90;95.30
7159;DHT22;63175;52.374;13.132;2022-10-12T05:15:49;6.80;95.30
7159;DHT22;63175;52.374;13.132;2022-10-12T05:18:16;6.80;95.40
7159;DHT22;63175;52.374;13.132;2022-10-12T05:20:43;6.80;95.40
7159;DHT22;63175;52.374;13.132;2022-10-12T05:23:11;6.80;95.50
7159;DHT22;63175;52.374;13.132;2022-10-12T05:25:38;6.80;95.50
7159;DHT22;63175;52.374;13.132;2022-10-12T05:28:05;6.80;95.60
7159;DHT22;63175;52.374;13.132;2022-10-12T05:30:32;6.70;95.60
7159;DHT22;63175;52.374;13.132;2022-10-12T05:32:59;6.70;95.70
7159;DHT22;63175;52.374;13.132;2022-10-12T05:35:26;6.70;95.70
7159;DHT22;63175;52.374;13.132;2022-10-12T05:37:52;6.70;95.80
7159;DHT22;63175;52.374;13.132;2022-10-12T05:40:21;6.60;95.80
7159;DHT22;63175;52.374;13.132;2022-10-12T05:42:48;6.60;95.90
7159;DHT22;63175;52.374;13.132;2022-10-12T05:45:14;6.60;95.90
7159;DHT22;63175;52.374;13.132;2022-10-12T05:47:41;6.60;96.00
7159;DHT22;63175;52.374;13.132;2022-10-12T05:50:08;6.60;96.00
7159;DHT22;63175;52.374;13.132;2022-10-12T05:52:35;6.60;96.10
7159;DHT22;63175;52.374;13.132;2022-10-12T05:55:02;6.60;96.10
7159;DHT22;63175;52.374;13.132;2022-10-12T05:57:30;6.60;96.20
7159;DHT22;63175;52.374;13.132;2022-10-12T05:59:57;6.60;96.30
7159;DHT22;63175;52.374;13.132;2022-10-12T06:02:24;6.60;96.40
7159;DHT22;63175;52.374;13.132;2022-10-12T06:04:51;6.60;96.40
7159;DHT22;63175;52.374;13.132;2022-10-12T06:07:18;6.60;96.50
7159;DHT22;63175;52.374;13.132;2022-10-12T06:09:45;6.60;96.70
7159;DHT22;63175;52.374;13.132;2022-10-12T06:12:12;6.60;96.80
7159;DHT22;63175;52.374;13.132;2022-10-12T06:14:41;6.60;97.00
7159;DHT22;63175;52.374;13.132;2022-10-12T06:17:08;6.60;97.20
7159;DHT22;63175;52.374;13.132;2022-10-12T06:19:35;6.60;97.60
7159;DHT22;63175;52.374;13.132;2022-10-12T06:22:02;6.60;97.60
7159;DHT22;63175;52.374;13.132;2022-10-12T06:24:30;6.60;97.80
7159;DHT22;63175;52.374;13.132;2022-10-12T06:26:57;6.70;98.00
7159;DHT22;63175;52.374;13.132;2022-10-12T06:29:23;6.80;98.20
7159;DHT22;63175;52.374;13.132;2022-10-12T06:31:52;6.80;98.30
7159;DHT22;63175;52.374;13.132;2022-10-12T06:34:19;6.90;98.40
7159;DHT22;63175;52.374;13.132;2022-10-12T06:36:46;7.00;98.50
7159;DHT22;63175;52.374;13.132;2022-10-12T06:39:15;7.10;98.60
7159;DHT22;63175;52.374;13.132;2022-10-12T06:41:41;7.20;98.80
7159;DHT22;63175;52.374;13.132;2022-10-12T06:44:08;7.20;98.80
7159;DHT22;63175;52.374;13.132;2022-10-12T06:46:36;7.30;98.90
7159;DHT22;63175;52.374;13.132;2022-10-12T06:49:04;7.40;99.00
7159;DHT22;63175;52.374;13.132;2022-10-12T06:51:31;7.50;99.00
7159;DHT22;63175;52.374;13.132;2022-10-12T06:53:58;7.60;99.00
7159;DHT22;63175;52.374;13.132;2022-10-12T06:56:25;7.70;99.10
7159;DHT22;63175;52.374;13.132;2022-10-12T06:58:55;7.80;99.10
7159;DHT22;63175;52.374;13.132;2022-10-12T07:01:22;7.90;99.10
7159;DHT22;63175;52.374;13.132;2022-10-12T07:03:49;8.10;99.30
7159;DHT22;63175;52.374;13.132;2022-10-12T07:06:17;8.10;99.30
7159;DHT22;63175;52.374;13.132;2022-10-12T07:08:44;8.30;99.40
7159;DHT22;63175;52.374;13.132;2022-10-12T07:11:13;8.40;99.20
7159;DHT22;63175;52.374;13.132;2022-10-12T07:13:40;8.60;99.40
7159;DHT22;63175;52.374;13.132;2022-10-12T07:16:07;8.70;99.20
7159;DHT22;63175;52.374;13.132;2022-10-12T07:18:34;8.90;99.30
7159;DHT22;63175;52.374;13.132;2022-10-12T07:21:01;9.10;99.20
7159;DHT22;63175;52.374;13.132;2022-10-12T07:23:30;9.20;99.10
7159;DHT22;63175;52.374;13.132;2022-10-12T07:25:58;9.40;99.00
7159;DHT22;63175;52.374;13.132;2022-10-12T07:28:25;9.60;98.90
7159;DHT22;63175;52.374;13.132;2022-10-12T07:30:52;9.80;98.70
7159;DHT22;63175;52.374;13.132;2022-10-12T07:33:19;9.90;98.40
7159;DHT22;63175;52.374;13.132;2022-10-12T07:35:52;10.00;97.60
7159;DHT22;63175;52.374;13.132;2022-10-12T07:38:20;10.20;97.60
7159;DHT22;63175;52.374;13.132;2022-10-12T07:40:48;10.20;96.90
7159;DHT22;63175;52.374;13.132;2022-10-12T07:43:15;10.40;97.10
7159;DHT22;63175;52.374;13.132;2022-10-12T07:45:42;10.50;97.30
7159;DHT22;63175;52.374;13.132;2022-10-12T07:48:09;10.70;96.90
7159;DHT22;63175;52.374;13.132;2022-10-12T07:50:36;10.80;96.40
7159;DHT22;63175;52.374;13.132;2022-10-12T07:53:03;10.90;96.50
7159;DHT22;63175;52.374;13.132;2022-10-12T07:55:30;11.00;96.20
7159;DHT22;63175;52.374;13.132;2022-10-12T07:57:58;11.20;96.30
7159;DHT22;63175;52.374;13.132;2022-10-12T08:00:26;11.30;96.30
7159;DHT22;63175;52.374;13.132;2022-10-12T08:02:53;11.50;96.40
7159;DHT22;63175;52.374;13.132;2022-10-12T08:05:20;11.60;96.50
7159;DHT22;63175;52.374;13.132;2022-10-12T08:07:47;11.80;96.40
7159;DHT22;63175;52.374;13.132;2022-10-12T08:10:15;11.90;95.90
7159;DHT22;63175;52.374;13.132;2022-10-12T08:12:43;12.10;95.90
7159;DHT22;63175;52.374;13.132;2022-10-12T08:15:12;12.20;96.10
7159;DHT22;63175;52.374;13.132;2022-10-12T08:17:39;12.40;95.70
7159;DHT22;63175;52.374;13.132;2022-10-12T08:20:07;12.60;95.90
7159;DHT22;63175;52.374;13.132;2022-10-12T08:22:33;12.70;95.40
7159;DHT22;63175;52.374;13.132;2022-10-12T08:25:00;12.90;95.60
7159;DHT22;63175;52.374;13.132;2022-10-12T08:27:29;13.10;95.30
7159;DHT22;63175;52.374;13.132;2022-10-12T08:29:56;13.20;95.10
7159;DHT22;63175;52.374;13.132;2022-10-12T08:32:25;13.30;94.90
7159;DHT22;63175;52.374;13.132;2022-10-12T08:34:51;13.50;94.60
7159;DHT22;63175;52.374;13.132;2022-10-12T08:37:18;13.60;94.30
7159;DHT22;63175;52.374;13.132;2022-10-12T08:39:45;13.70;94.00
7159;DHT22;63175;52.374;13.132;2022-10-12T08:42:28;13.80;93.90
7159;DHT22;63175;52.374;13.132;2022-10-12T08:47:59;13.90;93.80
7159;DHT22;63175;52.374;13.132;2022-10-12T08:50:32;13.90;93.30
7159;DHT22;63175;52.374;13.132;2022-10-12T08:53:04;14.00;93.60
7159;DHT22;63175;52.374;13.132;2022-10-12T08:55:35;14.10;93.70
7159;DHT22;63175;52.374;13.132;2022-10-12T08:58:13;14.20;93.70
7159;DHT22;63175;52.374;13.132;2022-10-12T09:00:41;14.30;93.50
7159;DHT22;63175;52.374;13.132;2022-10-12T09:03:22;14.40;93.40
7159;DHT22;63175;52.374;13.132;2022-10-12T09:05:57;14.40;93.20
7159;DHT22;63175;52.374;13.132;2022-10-12T09:08:33;14.60;93.30
7159;DHT22;63175;52.374;13.132;2022-10-12T09:11:15;14.70;92.80
7159;DHT22;63175;52.374;13.132;2022-10-12T09:13:54;14.70;92.80
7159;DHT22;63175;52.374;13.132;2022-10-12T09:16:25;14.80;93.00
7159;DHT22;63175;52.374;13.132;2022-10-12T09:18:57;14.90;92.50
7159;DHT22;63175;52.374;13.132;2022-10-12T09:21:26;15.00;92.30
7159;DHT22;63175;52.374;13.132;2022-10-12T09:23:55;15.10;92.10
7159;DHT22;63175;52.374;13.132;2022-10-12T09:26:30;15.10;92.20
7159;DHT22;63175;52.374;13.132;2022-10-12T09:28:58;15.20;91.90
7159;DHT22;63175;52.374;13.132;2022-10-12T09:31:36;15.30;91.30
7159;DHT22;63175;52.374;13.132;2022-10-12T09:34:07;15.40;91.30
7159;DHT22;63175;52.374;13.132;2022-10-12T09:36:36;15.50;91.10
7159;DHT22;63175;52.374;13.132;2022-10-12T09:39:06;15.60;91.10
7159;DHT22;63175;52.374;13.132;2022-10-12T09:41:39;15.70;90.70
7159;DHT22;63175;52.374;13.132;2022-10-12T09:44:12;15.80;90.80
7159;DHT22;63175;52.374;13.132;2022-10-12T09:46:43;15.80;90.70
7159;DHT22;63175;52.374;13.132;2022-10-12T09:49:13;15.90;90.50
7159;DHT22;63175;52.374;13.132;2022-10-12T09:51:40;16.00;90.40
7159;DHT22;63175;52.374;13.132;2022-10-12T09:54:16;16.00;90.00
7159;DHT22;63175;52.374;13.132;2022-10-12T09:56:47;16.00;90.20
7159;DHT22;63175;52.374;13.132;2022-10-12T09:59:25;16.10;89.50
7159;DHT22;63175;52.374;13.132;2022-10-12T10:01:58;16.20;88.30
7159;DHT22;63175;52.374;13.132;2022-10-12T10:04:27;16.30;86.40
7159;DHT22;63175;52.374;13.132;2022-10-12T10:06:54;16.30;84.90
7159;DHT22;63175;52.374;13.132;2022-10-12T10:09:37;16.40;82.50
7159;DHT22;63175;52.374;13.132;2022-10-12T10:12:20;16.30;82.20
7159;DHT22;63175;52.374;13.132;2022-10-12T10:14:49;16.40;82.80
7159;DHT22;63175;52.374;13.132;2022-10-12T10:17:23;16.50;82.60
7159;DHT22;63175;52.374;13.132;2022-10-12T10:19:52;16.50;80.70
7159;DHT22;63175;52.374;13.132;2022-10-12T10:22:20;16.50;80.00
7159;DHT22;63175;52.374;13.132;2022-10-12T10:24:51;16.50;80.60
7159;DHT22;63175;52.374;13.132;2022-10-12T10:27:31;16.50;80.50
7159;DHT22;63175;52.374;13.132;2022-10-12T10:30:14;16.50;80.30
7159;DHT22;63175;52.374;13.132;2022-10-12T10:32:46;16.60;81.10
7159;DHT22;63175;52.374;13.132;2022-10-12T10:35:19;16.70;80.30
7159;DHT22;63175;52.374;13.132;2022-10-12T10:37:48;16.80;81.60
7159;DHT22;63175;52.374;13.132;2022-10-12T10:40:19;16.80;79.10
7159;DHT22;63175;52.374;13.132;2022-10-12T10:42:49;16.90;77.10
7159;DHT22;63175;52.374;13.132;2022-10-12T10:45:22;16.90;76.20
7159;DHT22;63175;52.374;13.132;2022-10-12T10:47:50;16.90;76.00
7159;DHT22;63175;52.374;13.132;2022-10-12T10:50:25;16.90;75.30
7159;DHT22;63175;52.374;13.132;2022-10-12T10:52:55;17.00;74.70
7159;DHT22;63175;52.374;13.132;2022-10-12T10:55:30;17.00;74.40
7159;DHT22;63175;52.374;13.132;2022-10-12T10:58:02;17.10;73.00
7159;DHT22;63175;52.374;13.132;2022-10-12T11:00:33;17.10;73.00
7159;DHT22;63175;52.374;13.132;2022-10-12T11:03:04;17.10;73.10
7159;DHT22;63175;52.374;13.132;2022-10-12T11:05:36;17.20;72.20
7159;DHT22;63175;52.374;13.132;2022-10-12T11:08:05;17.20;71.90
7159;DHT22;63175;52.374;13.132;2022-10-12T11:10:42;17.30;71.40
7159;DHT22;63175;52.374;13.132;2022-10-12T11:13:14;17.30;71.70
7159;DHT22;63175;52.374;13.132;2022-10-12T11:15:46;17.30;70.70
7159;DHT22;63175;52.374;13.132;2022-10-12T11:18:17;17.40;70.70
7159;DHT22;63175;52.374;13.132;2022-10-12T11:20:51;17.40;69.50
7159;DHT22;63175;52.374;13.132;2022-10-12T11:23:27;17.50;69.30
7159;DHT22;63175;52.374;13.132;2022-10-12T11:26:11;17.60;69.10
7159;DHT22;63175;52.374;13.132;2022-10-12T11:28:41;17.50;69.10
7159;DHT22;63175;52.374;13.132;2022-10-12T11:31:16;17.50;69.20
7159;DHT22;63175;52.374;13.132;2022-10-12T11:33:44;17.60;68.10
7159;DHT22;63175;52.374;13.132;2022-10-12T11:36:16;17.40;67.50
7159;DHT22;63175;52.374;13.132;2022-10-12T11:38:46;17.30;68.20
7159;DHT22;63175;52.374;13.132;2022-10-12T11:41:18;17.30;68.10
7159;DHT22;63175;52.374;13.132;2022-10-12T11:43:51;17.30;68.00
7159;DHT22;63175;52.374;13.132;2022-10-12T11:46:24;17.30;67.40
7159;DHT22;63175;52.374;13.132;2022-10-12T11:49:00;17.30;66.90
7159;DHT22;63175;52.374;13.132;2022-10-12T11:51:29;17.30;67.40
7159;DHT22;63175;52.374;13.132;2022-10-12T11:54:00;17.30;68.10
7159;DHT22;63175;52.374;13.132;2022-10-12T11:56:31;17.30;68.90
7159;DHT22;63175;52.374;13.132;2022-10-12T11:59:03;17.30;69.50
7159;DHT22;63175;52.374;13.132;2022-10-12T12:01:52;17.40;67.90
7159;DHT22;63175;52.374;13.132;2022-10-12T12:04:30;17.40;67.30
7159;DHT22;63175;52.374;13.132;2022-10-12T12:07:00;17.40;67.90
7159;DHT22;63175;52.374;13.132;2022-10-12T12:09:37;17.50;68.60
7159;DHT22;63175;52.374;13.132;2022-10-12T12:12:19;17.50;68.00
7159;DHT22;63175;52.374;13.132;2022-10-12T12:15:19;17.50;67.70
7159;DHT22;63175;52.374;13.132;2022-10-12T12:18:10;17.60;68.30
7159;DHT22;63175;52.374;13.132;2022-10-12T12:21:04;17.70;68.00
7159;DHT22;63175;52.374;13.132;2022-10-12T12:23:38;17.70;67.30
7159;DHT22;63175;52.374;13.132;2022-10-12T12:26:13;17.80;64.90
7159;DHT22;63175;52.374;13.132;2022-10-12T12:28:41;17.80;64.50
7159;DHT22;63175;52.374;13.132;2022-10-12T12:31:12;17.80;64.60
7159;DHT22;63175;52.374;13.132;2022-10-12T12:33:42;17.90;64.60
7159;DHT22;63175;52.374;13.132;2022-10-12T12:36:13;17.90;64.40
7159;DHT22;63175;52.374;13.132;2022-10-12T12:38:48;18.00;65.30
7159;DHT22;63175;52.374;13.132;2022-10-12T12:41:16;18.00;64.40
7159;DHT22;63175;52.374;13.132;2022-10-12T12:44:02;18.20;65.30
7159;DHT22;63175;52.374;13.132;2022-10-12T12:49:44;18.40;63.60
7159;DHT22;63175;52.374;13.132;2022-10-12T12:52:16;18.50;63.80
7159;DHT22;63175;52.374;13.132;2022-10-12T12:54:55;18.50;63.70
7159;DHT22;63175;52.374;13.132;2022-10-12T12:57:44;18.60;62.00
7159;DHT22;63175;52.374;13.132;2022-10-12T13:00:19;18.70;61.40
7159;DHT22;63175;52.374;13.132;2022-10-12T13:03:17;18.80;61.20
7159;DHT22;63175;52.374;13.132;2022-10-12T13:09:15;18.80;61.10
7159;DHT22;63175;52.374;13.132;2022-10-12T13:12:22;18.90;61.20
7159;DHT22;63175;52.374;13.132;2022-10-12T13:15:20;19.00;60.50
7159;DHT22;63175;52.374;13.132;2022-10-12T13:18:06;19.00;59.50
7159;DHT22;63175;52.374;13.132;2022-10-12T13:20:46;19.10;59.60
7159;DHT22;63175;52.374;13.132;2022-10-12T13:23:18;19.20;59.30
7159;DHT22;63175;52.374;13.132;2022-10-12T13:25:48;19.30;59.40
7159;DHT22;63175;52.374;13.132;2022-10-12T13:28:21;19.30;58.30
7159;DHT22;63175;52.374;13.132;2022-10-12T13:30:53;19.30;58.00
7159;DHT22;63175;52.374;13.132;2022-10-12T13:33:25;19.40;58.00
7159;DHT22;63175;52.374;13.132;2022-10-12T13:35:57;19.40;58.10
7159;DHT22;63175;52.374;13.132;2022-10-12T13:38:28;19.40;58.30
7159;DHT22;63175;52.374;13.132;2022-10-12T13:41:05;19.40;58.20
7159;DHT22;63175;52.374;13.132;2022-10-12T13:43:41;19.50;57.90
7159;DHT22;63175;52.374;13.132;2022-10-12T13:46:10;19.50;57.20
7159;DHT22;63175;52.374;13.132;2022-10-12T13:48:37;19.50;57.80
7159;DHT22;63175;52.374;13.132;2022-10-12T13:51:19;19.50;58.20
7159;DHT22;63175;52.374;13.132;2022-10-12T13:53:47;19.60;58.20
7159;DHT22;63175;52.374;13.132;2022-10-12T13:56:15;19.60;58.30
7159;DHT22;63175;52.374;13.132;2022-10-12T13:58:44;19.60;58.30
7159;DHT22;63175;52.374;13.132;2022-10-12T14:01:12;19.70;57.70
7159;DHT22;63175;52.374;13.132;2022-10-12T14:03:41;19.70;56.80
7159;DHT22;63175;52.374;13.132;2022-10-12T14:06:23;19.80;56.00
7159;DHT22;63175;52.374;13.132;2022-10-12T14:08:52;19.80;56.20
7159;DHT22;63175;52.374;13.132;2022-10-12T14:11:19;19.70;56.10
7159;DHT22;63175;52.374;13.132;2022-10-12T14:13:48;19.60;56.80
7159;DHT22;63175;52.374;13.132;2022-10-12T14:16:15;19.60;56.50
7159;DHT22;63175;52.374;13.132;2022-10-12T14:18:43;19.50;56.30
7159;DHT22;63175;52.374;13.132;2022-10-12T14:21:15;19.40;56.20
7159;DHT22;63175;52.374;13.132;2022-10-12T14:23:44;19.20;55.90
7159;DHT22;63175;52.374;13.132;2022-10-12T14:26:27;19.00;56.30
7159;DHT22;63175;52.374;13.132;2022-10-12T14:28:57;18.80;56.50
7159;DHT22;63175;52.374;13.132;2022-10-12T14:31:50;18.60;56.80
7159;DHT22;63175;52.374;13.132;2022-10-12T14:34:33;18.50;57.40
7159;DHT22;63175;52.374;13.132;2022-10-12T14:37:01;18.30;57.60
7159;DHT22;63175;52.374;13.132;2022-10-12T14:39:28;18.20;57.60
7159;DHT22;63175;52.374;13.132;2022-10-12T14:41:56;18.00;57.80
7159;DHT22;63175;52.374;13.132;2022-10-12T14:44:26;17.90;57.90
7159;DHT22;63175;52.374;13.132;2022-10-12T14:46:54;17.80;58.50
7159;DHT22;63175;52.374;13.132;2022-10-12T14:49:33;17.70;59.10
7159;DHT22;63175;52.374;13.132;2022-10-12T14:52:02;17.60;58.90
7159;DHT22;63175;52.374;13.132;2022-10-12T14:54:29;17.60;58.90
7159;DHT22;63175;52.374;13.132;2022-10-12T14:56:57;17.40;59.00
7159;DHT22;63175;52.374;13.132;2022-10-12T14:59:28;17.30;59.10
7159;DHT22;63175;52.374;13.132;2022-10-12T15:01:55;17.30;59.20
7159;DHT22;63175;52.374;13.132;2022-10-12T15:04:22;17.20;59.40
7159;DHT22;63175;52.374;13.132;2022-10-12T15:06:49;17.20;60.00
7159;DHT22;63175;52.374;13.132;2022-10-12T15:09:15;17.10;60.30
7159;DHT22;63175;52.374;13.132;2022-10-12T15:11:42;17.00;60.20
7159;DHT22;63175;52.374;13.132;2022-10-12T15:14:10;17.00;60.70
7159;DHT22;63175;52.374;13.132;2022-10-12T15:16:38;16.90;60.40
7159;DHT22;63175;52.374;13.132;2022-10-12T15:19:05;16.80;60.60
7159;DHT22;63175;52.374;13.132;2022-10-12T15:21:32;16.80;60.80
7159;DHT22;63175;52.374;13.132;2022-10-12T15:23:58;16.70;60.90
7159;DHT22;63175;52.374;13.132;2022-10-12T15:26:25;16.70;61.30
7159;DHT22;63175;52.374;13.132;2022-10-12T15:28:52;16.70;61.50
7159;DHT22;63175;52.374;13.132;2022-10-12T15:31:19;16.60;61.60
7159;DHT22;63175;52.374;13.132;2022-10-12T15:33:48;16.50;61.80
7159;DHT22;63175;52.374;13.132;2022-10-12T15:36:14;16.50;62.00
7159;DHT22;63175;52.374;13.132;2022-10-12T15:38:41;16.50;62.40
7159;DHT22;63175;52.374;13.132;2022-10-12T15:41:14;16.40;62.60
7159;DHT22;63175;52.374;13.132;2022-10-12T15:43:42;16.40;63.00
7159;DHT22;63175;52.374;13.132;2022-10-12T15:46:10;16.40;63.20
7159;DHT22;63175;52.374;13.132;2022-10-12T15:48:37;16.40;63.60
7159;DHT22;63175;52.374;13.132;2022-10-12T15:51:11;16.30;63.80
7159;DHT22;63175;52.374;13.132;2022-10-12T15:53:38;16.30;64.10
7159;DHT22;63175;52.374;13.132;2022-10-12T15:56:09;16.30;64.30
7159;DHT22;63175;52.374;13.132;2022-10-12T15:58:36;16.30;64.60
7159;DHT22;63175;52.374;13.132;2022-10-12T16:01:03;16.30;65.00
7159;DHT22;63175;52.374;13.132;2022-10-12T16:03:30;16.20;65.30
7159;DHT22;63175;52.374;13.132;2022-10-12T16:05:58;16.20;65.60
7159;DHT22;63175;52.374;13.132;2022-10-12T16:08:26;16.20;65.80